createdAt,value
2017-01-17T00:00:37.692Z,89.64
2017-01-17T00:01:20.805Z,89.64
2017-01-17T00:02:01.278Z,89.83
2017-01-17T00:02:43.695Z,89.83
2017-01-17T00:03:24.924Z,89.45
2017-01-17T00:04:05.392Z,89.83
2017-01-17T00:04:45.893Z,90.02
2017-01-17T00:05:26.961Z,90.02
2017-01-17T00:06:07.493Z,89.83
2017-01-17T00:06:50.825Z,89.83
2017-01-17T00:07:32.718Z,90.21
2017-01-17T00:08:13.751Z,89.93
2017-01-17T00:08:57.839Z,90.31
2017-01-17T00:09:40.800Z,89.83
2017-01-17T00:10:23.719Z,89.83
2017-01-17T00:11:06.803Z,89.93
2017-01-17T00:11:49.061Z,90.02
2017-01-17T00:12:30.108Z,90.12
2017-01-17T00:13:13.448Z,90.02
2017-01-17T00:13:54.557Z,89.93
2017-01-17T00:14:35.078Z,89.83
2017-01-17T00:15:18.246Z,89.93
2017-01-17T00:16:01.479Z,90.21
2017-01-17T00:16:41.991Z,90.12
2017-01-17T00:17:22.476Z,90.12
2017-01-17T00:18:02.923Z,89.83
2017-01-17T00:18:43.996Z,89.93
2017-01-17T00:19:26.208Z,90.31
2017-01-17T00:20:07.406Z,89.74
2017-01-17T00:20:49.329Z,89.74
2017-01-17T00:21:36.217Z,90.12
2017-01-17T00:22:17.268Z,90.12
2017-01-17T00:22:59.714Z,89.93
2017-01-17T00:23:40.692Z,90.02
2017-01-17T00:24:21.156Z,89.74
2017-01-17T00:25:01.688Z,90.12
2017-01-17T00:25:42.891Z,89.93
2017-01-17T00:26:24.089Z,90.12
2017-01-17T00:27:05.492Z,90.12
2017-01-17T00:27:46.022Z,89.74
2017-01-17T00:28:28.710Z,90.12
2017-01-17T00:29:09.225Z,90.02
2017-01-17T00:29:53.209Z,90.12
2017-01-17T00:30:36.199Z,90.12
2017-01-17T00:31:21.713Z,90.02
2017-01-17T00:32:02.190Z,89.93
2017-01-17T00:32:43.200Z,89.93
2017-01-17T00:33:26.283Z,90.02
2017-01-17T00:34:10.207Z,89.93
2017-01-17T00:34:52.280Z,89.93
2017-01-17T00:35:33.568Z,90.12
2017-01-17T00:36:14.037Z,90.12
2017-01-17T00:36:55.366Z,89.83
2017-01-17T00:37:36.784Z,90.31
2017-01-17T00:38:17.901Z,89.93
2017-01-17T00:38:59.976Z,89.83
2017-01-17T00:40:47.947Z,90.12
2017-01-17T00:41:31.278Z,90.12
2017-01-17T00:42:12.241Z,90.21
2017-01-17T00:42:52.750Z,90.12
2017-01-17T00:43:34.930Z,90.5
2017-01-17T00:44:16.170Z,90.31
2017-01-17T00:44:57.672Z,90.21
2017-01-17T00:45:40.573Z,90.4
2017-01-17T00:46:22.658Z,90.31
2017-01-17T00:47:04.669Z,90.31
2017-01-17T00:47:46.086Z,90.31
2017-01-17T00:48:28.167Z,90.5
2017-01-17T00:49:10.342Z,90.21
2017-01-17T00:49:50.786Z,90.4
2017-01-17T00:50:31.253Z,90.4
2017-01-17T00:51:16.274Z,90.68
2017-01-17T00:51:56.718Z,90.4
2017-01-17T00:52:37.199Z,90.87
2017-01-17T00:53:17.692Z,90.97
2017-01-17T00:53:58.152Z,90.68
2017-01-17T00:54:38.640Z,90.68
2017-01-17T00:55:21.743Z,90.5
2017-01-17T00:56:03.085Z,90.68
2017-01-17T00:56:45.234Z,90.68
2017-01-17T00:57:25.763Z,90.68
2017-01-17T00:58:06.216Z,90.68
2017-01-17T00:58:47.656Z,90.5
2017-01-17T00:59:30.085Z,90.68
2017-01-17T01:00:10.534Z,90.4
2017-01-17T01:00:51.059Z,90.12
2017-01-17T01:01:33.068Z,90.31
2017-01-17T01:02:14.172Z,90.5
2017-01-17T01:02:55.359Z,90.59
2017-01-17T01:03:37.578Z,90.59
2017-01-17T01:04:18.064Z,90.5
2017-01-17T01:04:58.624Z,90.4
2017-01-17T01:05:39.739Z,90.59
2017-01-17T01:06:20.771Z,90.5
2017-01-17T01:07:04.566Z,90.59
2017-01-17T01:07:45.848Z,90.5
2017-01-17T01:08:26.299Z,90.59
2017-01-17T01:09:06.871Z,90.5
2017-01-17T01:09:52.331Z,90.4
2017-01-17T01:10:35.252Z,90.68
2017-01-17T01:11:16.574Z,90.59
2017-01-17T01:11:58.816Z,90.4
2017-01-17T01:12:41.575Z,90.68
2017-01-17T01:13:22.072Z,90.5
2017-01-17T01:14:03.148Z,90.59
2017-01-17T01:16:22.621Z,90.78
2017-01-17T01:17:04.798Z,90.4
2017-01-17T01:17:47.024Z,90.4
2017-01-17T01:18:30.019Z,90.4
2017-01-17T01:19:10.544Z,90.31
2017-01-17T01:19:50.996Z,90.4
2017-01-17T01:20:31.495Z,90.21
2017-01-17T01:21:11.998Z,90.87
2017-01-17T01:21:52.507Z,90.59
2017-01-17T01:22:33.927Z,90.5
2017-01-17T01:23:14.942Z,90.4
2017-01-17T01:23:55.412Z,90.68
2017-01-17T01:24:37.460Z,90.5
2017-01-17T01:25:17.897Z,90.5
2017-01-17T01:25:58.387Z,90.31
2017-01-17T01:26:39.817Z,90.31
2017-01-17T01:27:20.337Z,90.78
2017-01-17T01:28:01.802Z,90.5
2017-01-17T01:28:42.292Z,90.59
2017-01-17T01:29:25.426Z,90.68
2017-01-17T01:30:05.919Z,90.87
2017-01-17T01:30:47.116Z,90.31
2017-01-17T01:31:27.614Z,90.68
2017-01-17T01:32:08.931Z,90.31
2017-01-17T01:32:50.040Z,90.31
2017-01-17T01:33:30.507Z,90.4
2017-01-17T01:34:11.006Z,90.12
2017-01-17T01:34:52.946Z,90.31
2017-01-17T01:35:34.343Z,90.21
2017-01-17T01:36:14.862Z,90.4
2017-01-17T01:36:56.123Z,90.31
2017-01-17T01:37:37.210Z,90.31
2017-01-17T01:38:17.697Z,90.31
2017-01-17T01:38:58.173Z,90.31
2017-01-17T01:39:38.672Z,90.31
2017-01-17T01:40:19.134Z,90.68
2017-01-17T01:41:01.293Z,90.78
2017-01-17T01:41:44.085Z,90.31
2017-01-17T01:42:26.539Z,90.4
2017-01-17T01:43:07.929Z,90.4
2017-01-17T01:43:50.178Z,90.4
2017-01-17T01:44:30.738Z,90.21
2017-01-17T01:45:11.187Z,90.31
2017-01-17T01:45:51.696Z,90.4
2017-01-17T01:46:32.176Z,90.4
2017-01-17T01:47:13.209Z,90.87
2017-01-17T01:47:56.178Z,90.59
2017-01-17T01:48:36.656Z,90.68
2017-01-17T01:49:17.179Z,90.68
2017-01-17T01:49:58.638Z,90.68
2017-01-17T01:50:40.541Z,90.4
2017-01-17T01:51:21.009Z,90.68
2017-01-17T01:52:02.311Z,90.59
2017-01-17T01:52:42.763Z,90.59
2017-01-17T01:53:23.249Z,90.4
2017-01-17T01:54:04.279Z,90.4
2017-01-17T01:54:44.764Z,90.68
2017-01-17T01:55:25.226Z,90.5
2017-01-17T01:56:05.743Z,90.68
2017-01-17T01:56:47.048Z,90.59
2017-01-17T01:57:27.509Z,90.4
2017-01-17T01:58:07.987Z,90.87
2017-01-17T01:58:48.488Z,90.68
2017-01-17T01:59:29.934Z,90.5
2017-01-17T02:00:10.423Z,90.59
2017-01-17T02:00:52.432Z,90.5
2017-01-17T02:01:34.606Z,90.5
2017-01-17T02:02:16.704Z,90.5
2017-01-17T02:02:58.116Z,90.4
2017-01-17T02:03:40.017Z,90.4
2017-01-17T02:04:20.524Z,90.68
2017-01-17T02:05:02.778Z,90.59
2017-01-17T02:05:43.258Z,90.5
2017-01-17T02:06:23.825Z,90.59
2017-01-17T02:07:05.102Z,90.5
2017-01-17T02:07:45.657Z,90.78
2017-01-17T02:08:27.113Z,90.68
2017-01-17T02:09:08.563Z,90.31
2017-01-17T02:09:50.033Z,90.31
2017-01-17T02:10:30.545Z,90.5
2017-01-17T02:11:11.076Z,90.4
2017-01-17T02:11:51.524Z,90.5
2017-01-17T02:12:32.014Z,90.4
2017-01-17T02:13:13.017Z,90.87
2017-01-17T02:13:53.571Z,90.59
2017-01-17T02:14:34.015Z,90.5
2017-01-17T02:15:19.051Z,90.68
2017-01-17T02:15:59.513Z,90.5
2017-01-17T02:16:39.948Z,90.68
2017-01-17T02:17:21.424Z,90.68
2017-01-17T02:18:02.696Z,90.5
2017-01-17T02:18:44.094Z,90.59
2017-01-17T02:19:25.533Z,90.59
2017-01-17T02:20:06.007Z,90.5
2017-01-17T02:20:49.410Z,90.5
2017-01-17T02:21:29.960Z,90.31
2017-01-17T02:22:11.272Z,90.68
2017-01-17T02:22:51.768Z,90.4
2017-01-17T02:23:32.243Z,90.68
2017-01-17T02:24:14.206Z,90.78
2017-01-17T02:24:54.683Z,90.4
2017-01-17T02:25:35.129Z,90.59
2017-01-17T02:26:15.597Z,90.78
2017-01-17T02:26:56.108Z,90.68
2017-01-17T02:27:36.612Z,90.59
2017-01-17T02:28:17.105Z,90.59
2017-01-17T02:28:57.564Z,90.59
2017-01-17T02:29:43.428Z,90.59
2017-01-17T02:30:23.959Z,90.12
2017-01-17T02:31:05.097Z,90.4
2017-01-17T02:31:45.633Z,90.31
2017-01-17T02:32:27.040Z,90.31
2017-01-17T02:33:07.504Z,90.21
2017-01-17T02:33:48.701Z,90.12
2017-01-17T02:34:29.225Z,89.83
2017-01-17T02:35:11.517Z,89.83
2017-01-17T02:35:52.004Z,90.12
2017-01-17T02:36:34.227Z,89.83
2017-01-17T02:37:15.529Z,90.12
2017-01-17T02:37:58.638Z,90.12
2017-01-17T02:44:52.968Z,89.83
2017-01-17T02:45:33.563Z,89.93
2017-01-17T02:46:14.082Z,89.93
2017-01-17T02:46:54.524Z,89.93
2017-01-17T02:47:35.576Z,89.83
2017-01-17T02:48:17.809Z,90.12
2017-01-17T02:48:58.308Z,89.83
2017-01-17T02:49:38.787Z,90.12
2017-01-17T02:50:22.918Z,90.31
2017-01-17T02:51:03.425Z,90.31
2017-01-17T02:51:43.885Z,90.21
2017-01-17T02:52:24.387Z,90.02
2017-01-17T02:53:07.783Z,89.74
2017-01-17T02:53:49.100Z,90.5
2017-01-17T02:54:31.920Z,90.5
2017-01-17T02:55:13.109Z,90.4
2017-01-17T02:55:53.621Z,90.4
2017-01-17T02:56:34.701Z,90.5
2017-01-17T02:57:15.829Z,90.4
2017-01-17T02:57:57.037Z,90.5
2017-01-17T02:58:37.515Z,90.4
2017-01-17T02:59:20.507Z,90.12
2017-01-17T03:00:00.993Z,90.59
2017-01-17T03:00:41.479Z,90.07
2017-01-17T03:01:22.689Z,89.79
2017-01-17T03:02:03.835Z,89.88
2017-01-17T03:02:45.943Z,90.07
2017-01-17T03:03:27.079Z,89.98
2017-01-17T03:04:11.339Z,89.88
2017-01-17T03:04:51.838Z,90.26
2017-01-17T03:05:32.335Z,89.98
2017-01-17T03:06:15.402Z,89.79
2017-01-17T03:06:57.815Z,89.88
2017-01-17T03:07:39.179Z,90.26
2017-01-17T03:08:19.652Z,90.87
2017-01-17T03:09:00.156Z,90.5
2017-01-17T03:09:43.942Z,90.5
2017-01-17T03:10:25.192Z,90.59
2017-01-17T03:11:06.430Z,90.97
2017-01-17T03:11:48.521Z,90.97
2017-01-17T03:12:29.949Z,90.78
2017-01-17T03:13:10.503Z,91.06
2017-01-17T03:13:51.015Z,91.25
2017-01-17T03:14:31.475Z,91.25
2017-01-17T03:15:12.010Z,91.35
2017-01-17T03:15:56.016Z,91.35
2017-01-17T03:16:36.476Z,91.25
2017-01-17T03:17:19.416Z,91.44
2017-01-17T03:18:00.515Z,91.35
2017-01-17T03:18:42.580Z,91.16
2017-01-17T03:19:23.092Z,91.06
2017-01-17T03:20:03.572Z,91.06
2017-01-17T03:20:44.923Z,90.83
2017-01-17T03:21:25.394Z,90.64
2017-01-17T03:22:08.451Z,90.92
2017-01-17T03:22:54.429Z,90.64
2017-01-17T03:23:40.415Z,90.55
2017-01-17T03:24:21.934Z,90.26
2017-01-17T03:25:02.401Z,90.45
2017-01-17T03:25:43.730Z,90.45
2017-01-17T03:26:25.094Z,90.26
2017-01-17T03:27:06.442Z,90.45
2017-01-17T03:27:46.942Z,90.45
2017-01-17T03:28:27.897Z,90.64
2017-01-17T03:29:09.130Z,90.83
2017-01-17T03:29:49.613Z,90.55
2017-01-17T03:30:32.839Z,90.73
2017-01-17T03:31:13.954Z,90.73
2017-01-17T03:31:57.005Z,90.73
2017-01-17T03:32:37.499Z,90.64
2017-01-17T03:33:18.846Z,90.64
2017-01-17T03:33:59.848Z,90.64
2017-01-17T03:34:44.809Z,91.02
2017-01-17T03:35:25.261Z,90.83
2017-01-17T03:36:07.330Z,90.83
2017-01-17T03:36:47.796Z,90.64
2017-01-17T03:37:28.291Z,90.83
2017-01-17T03:38:08.769Z,91.06
2017-01-17T03:38:51.830Z,91.11
2017-01-17T03:39:34.920Z,91.06
2017-01-17T03:40:15.972Z,91.06
2017-01-17T03:40:57.324Z,91.16
2017-01-17T03:41:38.665Z,91.16
2017-01-17T03:42:20.589Z,91.2
2017-01-17T03:43:02.450Z,91.16
2017-01-17T03:43:42.947Z,91.25
2017-01-17T03:44:26.823Z,91.16
2017-01-17T03:45:09.940Z,91.16
2017-01-17T03:45:51.929Z,91.16
2017-01-17T03:46:33.312Z,91.16
2017-01-17T03:47:16.410Z,91.16
2017-01-17T03:47:56.883Z,91.16
2017-01-17T03:48:38.024Z,90.97
2017-01-17T03:49:19.052Z,91.16
2017-01-17T03:50:02.311Z,91.25
2017-01-17T03:50:45.574Z,90.87
2017-01-17T03:51:26.068Z,90.97
2017-01-17T03:52:07.064Z,91.16
2017-01-17T03:52:48.300Z,91.25
2017-01-17T03:53:29.492Z,91.16
2017-01-17T03:54:09.973Z,91.16
2017-01-17T03:54:51.834Z,91.16
2017-01-17T03:55:32.317Z,91.06
2017-01-17T03:56:13.820Z,91.16
2017-01-17T03:56:57.119Z,91.25
2017-01-17T03:57:37.583Z,91.35
2017-01-17T03:58:18.035Z,91.25
2017-01-17T03:58:58.491Z,90.59
2017-01-17T03:59:38.997Z,90.59
2017-01-17T04:00:20.404Z,90.5
2017-01-17T04:02:09.386Z,90.68
2017-01-17T04:02:49.851Z,90.5
2017-01-17T04:03:32.377Z,90.5
2017-01-17T04:04:12.890Z,90.5
2017-01-17T04:06:27.894Z,90.31
2017-01-17T04:07:10.382Z,90.68
2017-01-17T04:09:28.280Z,90.68
2017-01-17T04:10:09.600Z,90.59
2017-01-17T04:10:57.541Z,90.59
2017-01-17T04:11:38.003Z,90.4
2017-01-17T04:12:18.476Z,90.31
2017-01-17T04:12:59.710Z,89.93
2017-01-17T04:13:40.228Z,89.93
2017-01-17T04:14:20.649Z,90.12
2017-01-17T04:15:01.743Z,90.21
2017-01-17T04:15:43.354Z,89.83
2017-01-17T04:16:24.356Z,89.83
2017-01-17T04:17:05.492Z,89.93
2017-01-17T04:17:46.851Z,89.55
2017-01-17T04:18:27.880Z,89.83
2017-01-17T04:19:08.347Z,89.64
2017-01-17T04:19:50.352Z,89.27
2017-01-17T04:20:31.370Z,89.08
2017-01-17T04:21:14.360Z,89.36
2017-01-17T04:21:57.537Z,89.36
2017-01-17T04:22:38.842Z,89.55
2017-01-17T04:23:20.150Z,89.36
2017-01-17T04:24:01.929Z,89.74
2017-01-17T04:24:44.334Z,89.27
2017-01-17T04:25:24.817Z,88.98
2017-01-17T04:26:07.195Z,89.17
2017-01-17T04:26:47.656Z,89.64
2017-01-17T04:27:34.854Z,89.64
2017-01-17T04:28:21.168Z,89.27
2017-01-17T04:29:01.616Z,89.45
2017-01-17T04:29:43.970Z,89.64
2017-01-17T04:30:24.971Z,89.74
2017-01-17T04:31:06.117Z,88.79
2017-01-17T04:31:46.618Z,88.84
2017-01-17T04:32:27.108Z,88.93
2017-01-17T04:33:08.845Z,88.84
2017-01-17T04:33:50.341Z,89.03
2017-01-17T04:34:36.514Z,88.84
2017-01-17T04:35:18.447Z,88.56
2017-01-17T04:35:58.954Z,88.84
2017-01-17T04:36:41.836Z,88.18
2017-01-17T04:37:28.845Z,88.28
2017-01-17T04:38:11.951Z,88.37
2017-01-17T04:38:54.347Z,88.84
2017-01-17T04:39:38.437Z,88.37
2017-01-17T04:40:19.027Z,88.09
2017-01-17T04:41:00.854Z,88.46
2017-01-17T04:41:44.971Z,88.37
2017-01-17T04:42:27.868Z,88.18
2017-01-17T04:43:08.376Z,88.09
2017-01-17T04:43:53.358Z,88.18
2017-01-17T04:44:35.374Z,88.37
2017-01-17T04:45:18.869Z,88.37
2017-01-17T04:45:59.360Z,87.71
2017-01-17T04:46:41.532Z,87.99
2017-01-17T04:47:22.017Z,87.9
2017-01-17T04:48:02.491Z,88.18
2017-01-17T04:48:47.881Z,87.71
2017-01-17T04:49:28.329Z,87.62
2017-01-17T04:50:11.346Z,87.62
2017-01-17T04:50:52.589Z,87.62
2017-01-17T04:51:33.084Z,87.9
2017-01-17T04:52:13.600Z,87.52
2017-01-17T04:52:56.457Z,87.52
2017-01-17T04:53:38.436Z,87.62
2017-01-17T04:54:19.633Z,87.33
2017-01-17T04:55:06.348Z,87.62
2017-01-17T04:55:46.830Z,87.71
2017-01-17T04:56:30.861Z,87.8
2017-01-17T04:57:12.215Z,87.9
2017-01-17T04:57:55.097Z,87.14
2017-01-17T04:58:36.574Z,87.43
2017-01-17T04:59:17.932Z,87.33
2017-01-17T05:00:00.848Z,87.62
2017-01-17T05:00:45.858Z,87.62
2017-01-17T05:01:26.369Z,87.14
2017-01-17T05:02:06.879Z,87.05
2017-01-17T05:02:49.985Z,87.14
2017-01-17T05:03:32.122Z,86.95
2017-01-17T05:04:13.328Z,86.67
2017-01-17T05:04:53.823Z,86.86
2017-01-17T05:05:34.972Z,86.86
2017-01-17T05:06:16.954Z,86.29
2017-01-17T05:06:57.432Z,86.38
2017-01-17T05:07:38.584Z,86.48
2017-01-17T05:08:19.629Z,86.48
2017-01-17T05:09:01.028Z,86.48
2017-01-17T05:09:42.032Z,86.57
2017-01-17T05:10:23.193Z,86.57
2017-01-17T05:11:03.700Z,86.86
2017-01-17T05:11:44.204Z,86.48
2017-01-17T05:12:25.589Z,86.1
2017-01-17T05:13:06.950Z,86.01
2017-01-17T05:13:52.124Z,86.01
2017-01-17T05:14:32.630Z,86.1
2017-01-17T05:15:13.100Z,86.19
2017-01-17T05:15:53.613Z,86.29
2017-01-17T05:16:35.052Z,86.19
2017-01-17T05:17:15.561Z,86.29
2017-01-17T05:17:56.029Z,86.1
2017-01-17T05:18:36.519Z,85.91
2017-01-17T05:19:16.976Z,85.82
2017-01-17T05:21:30.128Z,86.1
2017-01-17T05:22:10.610Z,86.05
2017-01-17T05:22:51.159Z,86.15
2017-01-17T05:24:40.362Z,85.77
2017-01-17T05:25:20.772Z,85.77
2017-01-17T05:26:01.320Z,86.01
2017-01-17T05:26:42.036Z,85.58
2017-01-17T05:27:22.538Z,85.2
2017-01-17T05:28:02.988Z,85.68
2017-01-17T05:28:43.497Z,85.53
2017-01-17T05:29:24.016Z,85.58
2017-01-17T05:30:05.461Z,85.49
2017-01-17T05:30:45.993Z,85.49
2017-01-17T05:31:28.414Z,85.3
2017-01-17T05:32:08.915Z,85.39
2017-01-17T05:32:50.119Z,85.49
2017-01-17T05:33:31.388Z,85.49
2017-01-17T05:34:13.473Z,85.58
2017-01-17T05:34:54.046Z,85.58
2017-01-17T05:35:35.153Z,85.58
2017-01-17T05:36:20.296Z,85.58
2017-01-17T05:37:02.380Z,85.58
2017-01-17T05:37:42.871Z,85.68
2017-01-17T05:38:24.205Z,85.77
2017-01-17T05:39:06.467Z,85.77
2017-01-17T05:39:46.962Z,85.49
2017-01-17T05:40:28.029Z,85.77
2017-01-17T05:41:08.585Z,85.77
2017-01-17T05:41:51.460Z,85.49
2017-01-17T05:42:33.450Z,85.58
2017-01-17T05:43:13.986Z,85.77
2017-01-17T05:43:54.533Z,85.77
2017-01-17T05:44:35.056Z,85.77
2017-01-17T05:45:15.569Z,85.58
2017-01-17T05:45:56.028Z,85.86
2017-01-17T05:46:36.552Z,85.77
2017-01-17T05:47:17.010Z,85.68
2017-01-17T05:47:58.040Z,85.39
2017-01-17T05:48:38.502Z,85.2
2017-01-17T05:49:21.629Z,85.2
2017-01-17T05:50:02.948Z,85.01
2017-01-17T05:50:44.273Z,85.2
2017-01-17T05:51:24.809Z,85.49
2017-01-17T05:52:05.252Z,85.3
2017-01-17T05:52:45.726Z,85.49
2017-01-17T05:53:29.852Z,85.49
2017-01-17T05:54:10.339Z,85.49
2017-01-17T05:54:53.266Z,85.01
2017-01-17T05:55:34.395Z,85.2
2017-01-17T05:56:17.485Z,84.92
2017-01-17T05:56:57.878Z,84.82
2017-01-17T05:57:38.355Z,85.01
2017-01-17T05:58:19.350Z,85.01
2017-01-17T05:59:00.764Z,84.82
2017-01-17T05:59:42.017Z,84.64
2017-01-17T06:00:23.870Z,85.01
2017-01-17T06:01:04.351Z,85.01
2017-01-17T06:01:45.621Z,85.2
2017-01-17T06:02:27.748Z,84.64
2017-01-17T06:03:08.246Z,84.45
2017-01-17T06:03:48.749Z,84.82
2017-01-17T06:04:29.353Z,84.82
2017-01-17T06:05:10.617Z,84.92
2017-01-17T06:05:51.162Z,84.73
2017-01-17T06:06:32.434Z,84.82
2017-01-17T06:07:14.369Z,84.64
2017-01-17T06:07:54.854Z,84.54
2017-01-17T06:08:35.894Z,84.64
2017-01-17T06:09:16.367Z,84.64
2017-01-17T06:09:59.282Z,84.54
2017-01-17T06:10:39.783Z,84.54
2017-01-17T06:11:20.247Z,84.54
2017-01-17T06:12:00.730Z,84.64
2017-01-17T06:12:41.255Z,84.54
2017-01-17T06:13:21.799Z,84.82
2017-01-17T06:14:02.256Z,84.82
2017-01-17T06:14:42.712Z,84.64
2017-01-17T06:15:23.852Z,84.54
2017-01-17T06:16:05.386Z,84.45
2017-01-17T06:16:45.895Z,85.01
2017-01-17T06:17:26.376Z,84.92
2017-01-17T06:18:06.852Z,84.73
2017-01-17T06:18:47.366Z,85.2
2017-01-17T06:19:28.474Z,84.82
2017-01-17T06:20:08.959Z,85.2
2017-01-17T06:20:49.404Z,85.01
2017-01-17T06:21:33.255Z,85.58
2017-01-17T06:22:14.253Z,85.49
2017-01-17T06:22:54.776Z,85.39
2017-01-17T06:23:36.751Z,85.49
2017-01-17T06:24:17.259Z,85.2
2017-01-17T06:24:57.745Z,85.3
2017-01-17T06:25:38.279Z,85.3
2017-01-17T06:26:19.368Z,85.49
2017-01-17T06:27:00.668Z,85.3
2017-01-17T06:27:42.133Z,85.39
2017-01-17T06:28:22.655Z,85.39
2017-01-17T06:29:03.767Z,85.49
2017-01-17T06:29:44.745Z,85.39
2017-01-17T06:30:25.243Z,85.49
2017-01-17T06:31:06.448Z,85.58
2017-01-17T06:31:46.920Z,85.58
2017-01-17T06:32:27.413Z,85.58
2017-01-17T06:33:08.907Z,85.11
2017-01-17T06:33:49.399Z,85.11
2017-01-17T06:34:29.955Z,85.49
2017-01-17T06:35:10.436Z,85.2
2017-01-17T06:35:50.950Z,85.2
2017-01-17T06:36:31.446Z,84.73
2017-01-17T06:37:11.954Z,84.73
2017-01-17T06:37:53.283Z,84.82
2017-01-17T06:38:33.796Z,84.82
2017-01-17T06:39:14.271Z,84.82
2017-01-17T06:39:54.756Z,85.2
2017-01-17T06:40:35.281Z,84.82
2017-01-17T06:41:15.771Z,85.01
2017-01-17T06:41:56.478Z,84.82
2017-01-17T06:42:37.050Z,84.64
2017-01-17T06:43:18.544Z,84.73
2017-01-17T06:43:59.031Z,84.92
2017-01-17T06:44:39.556Z,84.82
2017-01-17T06:45:20.868Z,84.82
2017-01-17T06:46:01.345Z,84.82
2017-01-17T06:46:42.800Z,84.73
2017-01-17T06:47:23.271Z,84.82
2017-01-17T06:48:03.730Z,84.82
2017-01-17T06:48:44.240Z,84.82
2017-01-17T06:49:24.718Z,85.01
2017-01-17T06:50:05.186Z,85.39
2017-01-17T06:50:45.720Z,85.58
2017-01-17T06:51:26.184Z,84.92
2017-01-17T06:52:06.843Z,84.82
2017-01-17T06:52:47.332Z,84.64
2017-01-17T06:53:27.835Z,84.54
2017-01-17T06:54:08.385Z,84.82
2017-01-17T06:54:48.842Z,85.01
2017-01-17T06:55:29.273Z,84.82
2017-01-17T06:56:09.861Z,84.82
2017-01-17T06:56:50.279Z,84.92
2017-01-17T06:57:30.775Z,84.35
2017-01-17T06:58:11.273Z,84.64
2017-01-17T06:58:51.769Z,84.82
2017-01-17T06:59:32.233Z,84.45
2017-01-17T07:00:12.727Z,84.54
2017-01-17T07:00:53.934Z,84.82
2017-01-17T07:01:34.435Z,84.35
2017-01-17T07:02:14.896Z,84.26
2017-01-17T07:02:55.429Z,84.26
2017-01-17T07:03:35.884Z,85.01
2017-01-17T07:04:16.419Z,85.05
2017-01-17T07:04:56.872Z,84.26
2017-01-17T07:05:37.371Z,84.45
2017-01-17T07:06:17.791Z,84.58
2017-01-17T07:06:58.294Z,84.39
2017-01-17T07:07:39.212Z,84.49
2017-01-17T07:08:19.345Z,84.77
2017-01-17T07:08:59.776Z,84.68
2017-01-17T07:09:40.299Z,84.58
2017-01-17T07:10:20.754Z,84.58
2017-01-17T07:11:01.280Z,84.58
2017-01-17T07:11:41.717Z,84.77
2017-01-17T07:12:22.241Z,84.39
2017-01-17T07:13:02.709Z,84.01
2017-01-17T07:13:43.224Z,84.01
2017-01-17T07:14:23.724Z,84.39
2017-01-17T07:15:04.192Z,84.2
2017-01-17T07:15:44.738Z,83.92
2017-01-17T07:16:25.211Z,84.11
2017-01-17T07:17:05.692Z,83.92
2017-01-17T07:17:46.160Z,84.01
2017-01-17T07:18:26.633Z,83.83
2017-01-17T07:19:07.133Z,83.83
2017-01-17T07:19:47.629Z,83.92
2017-01-17T07:20:28.108Z,83.83
2017-01-17T07:21:08.568Z,84.01
2017-01-17T07:21:49.068Z,83.83
2017-01-17T07:22:29.524Z,83.88
2017-01-17T07:23:10.079Z,83.83
2017-01-17T07:23:50.568Z,83.92
2017-01-17T07:24:30.998Z,83.88
2017-01-17T07:25:11.496Z,84.07
2017-01-17T07:25:52.946Z,84.39
2017-01-17T07:26:33.438Z,84.2
2017-01-17T07:27:13.930Z,84.2
2017-01-17T07:27:54.418Z,84.54
2017-01-17T07:28:34.932Z,83.88
2017-01-17T07:29:15.375Z,84.45
2017-01-17T07:29:55.893Z,84.35
2017-01-17T07:30:36.409Z,84.26
2017-01-17T07:31:16.837Z,83.88
2017-01-17T07:31:58.284Z,84.73
2017-01-17T07:32:38.747Z,84.82
2017-01-17T07:33:19.214Z,84.73
2017-01-17T07:33:59.745Z,84.73
2017-01-17T07:34:40.224Z,84.82
2017-01-17T07:35:21.270Z,84.45
2017-01-17T07:36:01.746Z,84.82
2017-01-17T07:36:45.030Z,84.73
2017-01-17T07:37:27.296Z,85.68
2017-01-17T07:38:08.659Z,85.3
2017-01-17T07:38:49.096Z,85.2
2017-01-17T07:39:29.566Z,85.01
2017-01-17T07:40:11.012Z,85.39
2017-01-17T07:40:56.095Z,85.58
2017-01-17T07:41:36.671Z,85.39
2017-01-17T07:42:18.997Z,85.49
2017-01-17T07:42:59.448Z,85.2
2017-01-17T07:43:39.954Z,85.77
2017-01-17T07:44:20.437Z,85.96
2017-01-17T07:45:00.913Z,85.96
2017-01-17T07:45:41.385Z,85.96
2017-01-17T07:46:21.925Z,85.3
2017-01-17T07:47:02.421Z,85.49
2017-01-17T07:47:42.899Z,85.96
2017-01-17T07:48:23.404Z,86.05
2017-01-17T07:49:03.892Z,85.96
2017-01-17T07:49:45.149Z,86.05
2017-01-17T07:50:25.664Z,85.96
2017-01-17T07:51:06.163Z,85.68
2017-01-17T07:51:46.647Z,85.68
2017-01-17T07:52:27.158Z,85.77
2017-01-17T07:53:07.653Z,85.77
2017-01-17T07:53:48.180Z,86.15
2017-01-17T07:54:28.642Z,85.96
2017-01-17T07:55:09.131Z,85.96
2017-01-17T07:55:49.579Z,86.15
2017-01-17T07:56:30.056Z,85.96
2017-01-17T07:57:10.555Z,85.86
2017-01-17T07:57:51.063Z,86.15
2017-01-17T07:58:31.582Z,86.05
2017-01-17T07:59:12.064Z,86.05
2017-01-17T07:59:52.553Z,86.52
2017-01-17T08:00:33.050Z,86.24
2017-01-17T08:01:13.556Z,86.24
2017-01-17T08:01:54.053Z,86.24
2017-01-17T08:02:34.614Z,86.52
2017-01-17T08:03:15.138Z,86.24
2017-01-17T08:05:33.483Z,86.05
2017-01-17T08:06:13.853Z,86.05
2017-01-17T08:06:55.494Z,86.15
2017-01-17T08:07:36.508Z,86.05
2017-01-17T08:08:17.033Z,86.15
2017-01-17T08:08:58.291Z,86.05
2017-01-17T08:09:39.740Z,86.43
2017-01-17T08:10:20.247Z,86.15
2017-01-17T08:11:04.817Z,86.15
2017-01-17T08:11:45.883Z,86.15
2017-01-17T08:12:28.640Z,86.15
2017-01-17T08:13:09.833Z,86.15
2017-01-17T08:13:50.876Z,86.15
2017-01-17T08:16:04.818Z,86.05
2017-01-17T08:16:45.822Z,85.68
2017-01-17T08:17:26.631Z,85.96
2017-01-17T08:18:08.165Z,85.96
2017-01-17T08:18:48.811Z,86.05
2017-01-17T08:19:29.592Z,86.24
2017-01-17T08:20:10.275Z,86.05
2017-01-17T08:20:51.018Z,85.96
2017-01-17T08:21:31.555Z,85.96
2017-01-17T08:22:12.063Z,86.15
2017-01-17T08:22:52.548Z,85.96
2017-01-17T08:23:33.088Z,86.05
2017-01-17T08:24:13.603Z,85.86
2017-01-17T08:24:54.815Z,85.96
2017-01-17T08:25:35.833Z,86.05
2017-01-17T08:26:17.301Z,85.68
2017-01-17T08:26:57.816Z,85.86
2017-01-17T08:27:38.356Z,85.96
2017-01-17T08:28:19.851Z,86.05
2017-01-17T08:29:00.319Z,85.96
2017-01-17T08:29:40.843Z,86.15
2017-01-17T08:30:21.345Z,86.15
2017-01-17T08:31:03.098Z,85.96
2017-01-17T08:31:43.005Z,86.05
2017-01-17T08:32:24.350Z,85.86
2017-01-17T08:33:04.834Z,85.39
2017-01-17T08:33:45.371Z,85.49
2017-01-17T08:34:25.876Z,85.49
2017-01-17T08:35:06.416Z,85.39
2017-01-17T08:35:46.951Z,85.39
2017-01-17T08:36:27.415Z,85.49
2017-01-17T08:37:09.643Z,85.58
2017-01-17T08:37:50.126Z,85.58
2017-01-17T08:38:30.599Z,85.68
2017-01-17T08:39:11.088Z,85.39
2017-01-17T08:39:51.610Z,85.3
2017-01-17T08:40:32.103Z,85.11
2017-01-17T08:41:12.613Z,85.39
2017-01-17T08:41:53.209Z,85.39
2017-01-17T08:42:34.349Z,85.39
2017-01-17T08:43:14.817Z,85.2
2017-01-17T08:43:55.289Z,85.2
2017-01-17T08:44:35.797Z,85.49
2017-01-17T08:45:16.292Z,85.58
2017-01-17T08:45:56.788Z,84.64
2017-01-17T08:46:37.299Z,84.54
2017-01-17T08:47:17.818Z,84.73
2017-01-17T08:47:58.315Z,84.45
2017-01-17T08:48:38.842Z,84.82
2017-01-17T08:49:19.328Z,84.54
2017-01-17T08:49:59.787Z,84.54
2017-01-17T08:50:40.276Z,84.54
2017-01-17T08:51:20.768Z,84.64
2017-01-17T08:52:01.245Z,84.45
2017-01-17T08:52:41.788Z,84.82
2017-01-17T08:53:22.309Z,84.82
2017-01-17T08:54:02.767Z,84.86
2017-01-17T08:54:43.309Z,84.58
2017-01-17T08:55:23.898Z,84.86
2017-01-17T08:56:04.476Z,84.77
2017-01-17T08:56:44.995Z,84.86
2017-01-17T08:57:25.440Z,84.39
2017-01-17T08:58:05.977Z,84.2
2017-01-17T08:58:46.466Z,84.39
2017-01-17T08:59:26.984Z,83.73
2017-01-17T09:00:07.503Z,84.11
2017-01-17T09:00:47.988Z,84.01
2017-01-17T09:01:28.456Z,84.01
2017-01-17T09:02:09.040Z,83.92
2017-01-17T09:02:49.444Z,83.36
2017-01-17T09:03:29.956Z,83.26
2017-01-17T09:04:10.422Z,83.17
2017-01-17T09:04:50.925Z,83.17
2017-01-17T09:05:31.410Z,83.36
2017-01-17T09:06:11.921Z,83.26
2017-01-17T09:06:52.375Z,83.54
2017-01-17T09:07:32.866Z,83.17
2017-01-17T09:08:13.351Z,83.17
2017-01-17T09:08:53.818Z,83.17
2017-01-17T09:09:34.378Z,83.73
2017-01-17T09:10:14.899Z,83.07
2017-01-17T09:10:55.422Z,82.98
2017-01-17T09:11:35.901Z,82.88
2017-01-17T09:12:16.444Z,83.07
2017-01-17T09:12:56.955Z,83.07